Tiempo atmosférico en la estación meteorológica de Benamejí, Córdoba (465 m.)



Fecha
DESCASC
Temp. máxima en grados centígrados (hora)
DESCASC
Temp. mínima en grados centígrados (hora)
DESCASC
Temp. media en grados centígrados
DESCASC
Racha de viento máxima en m/sg (hora)
DESCASC
Velocidad máxima media en intervalos de 10 minutos(hora)
DESCASC
Precipitaciones diarias en mm
DESCASC
Precipitaciones de 00:00 a 06:00 en mm
DESCASC
Precipitaciones de 06:00 a 12:00 en mm
DESCASC
Precipitaciones de 12:00 a 18:00 en mm
DESCASC
Precipitaciones de 18:00 a 24:00 en mm
DESCASC
18-10-2018 16.4 (00:00) 10.1 (14:10) 13.3 10.28 (10:50) 6.11 (11:30) 38.4 0.2 25.2 13 0
17-10-2018 22.9 (17:10) 11.8 (08:30) 17.3 5.28 (17:30) 2.78 (17:30) 0 0 0 0 0
16-10-2018 19.1 (18:50) 12.5 (00:10) 15.8 6.11 (15:40) 3.89 (15:40) 1.2 1 0.2 0 0
15-10-2018 18.8 (16:50) 8.2 (09:00) 13.5 8.89 (16:10) 3.89 (18:20) 7.2 0 0 0 7.2
14-10-2018 21.1 (01:20) 11.3 (00:00) 16.2 12.22 (03:10) 9.17 (03:10) 6.4 0 6.4 0 0
13-10-2018 29.6 (16:20) 17.8 (00:00) 23.7 11.11 (13:50) 7.5 (13:50) 0 0 0 0 0
12-10-2018 27.8 (17:50) 15.2 (00:00) 21.5 5.83 (16:10) 3.06 (16:10) 0 0 0 0 0
11-10-2018 23.6 (18:00) 17 (00:40) 20.3 9.44 (13:40) 6.11 (13:40) 0 0 0 0 0
10-10-2018 24.8 (17:10) 15.1 (00:00) 19.9 8.89 (18:50) 6.11 (18:40) 0.2 0.2 0 0 0
09-10-2018 24.8 (15:10) 14.7 (08:10) 19.7 11.67 (17:40) 8.33 (16:50) 8 0 0 0 8
08-10-2018 25.8 (16:50) 13.9 (08:40) 19.8 9.44 (16:20) 5.28 (18:00) 0 0 0 0 0
07-10-2018 28.7 (16:30) 15.5 (08:30) 22.1 9.72 (18:30) 5.83 (18:30) 0 0 0 0 0
06-10-2018 30 (17:20) 15.1 (08:40) 22.6 8.33 (18:10) 5.28 (20:40) 0 0 0 0 0
05-10-2018 28.3 (15:20) 15.3 (07:00) 21.8 9.72 (16:00) 6.39 (18:50) 0 0 0 0 0
04-10-2018 28.4 (14:50) 15.2 (00:00) 21.8 8.89 (19:40) 6.39 (19:40) 0 0 0 0 0
03-10-2018 28 (16:00) 15.6 (00:00) 21.8 9.44 (19:20) 6.67 (19:40) 0 0 0 0 0
02-10-2018 29.9 (16:30) 15.6 (00:00) 22.8 8.61 (20:10) 6.67 (20:10) 0 0 0 0 0
01-10-2018 29.9 (18:10) 17.7 (00:00) 23.8 7.5 (16:10) 4.17 (16:10) 0 0 0 0 0
30-09-2018 29.8 (17:30) 16.4 (00:00) 23.1 11.11 (17:00) 5 (00:10) 0 0 0 0 0
29-09-2018 29.7 (17:00) 15.8 (00:00) 22.8 6.67 (19:40) 4.72 (20:00) 0 0 0 0 0
28-09-2018 27.6 (17:00) 17.4 (00:00) 22.5 7.22 (18:30) 5.28 (21:20) 0 0 0 0 0
27-09-2018 -- (--) -- (--) -- -- (--) -- (--) -- -- 0 0 0
26-09-2018 28.8 (15:50) 20.8 (00:00) 24.8 12.78 (17:00) 8.89 (16:30) 2.8 0 0 2.6 0.2
25-09-2018 31.6 (17:10) 20.6 (00:00) 26.1 10 (18:40) 7.5 (18:40) 0 0 0 0 0
24-09-2018 35 (17:00) 20.1 (00:00) 27.6 10 (17:40) 7.22 (17:50) 0 0 0 0 0
23-09-2018 34.8 (16:50) 19.8 (08:30) 27.3 10.28 (17:50) 7.22 (17:50) 0 0 0 0 0
22-09-2018 33.9 (15:10) 19.8 (07:40) 26.9 10 (19:40) 7.5 (19:00) 0 0 0 0 0
21-09-2018 33 (17:20) 18.2 (08:10) 25.6 7.5 (20:10) 5.28 (20:40) 0 0 0 0 0
20-09-2018 31 (17:20) 19 (08:20) 25 8.89 (19:10) 6.11 (17:40) 0 0 0 0 0

Gráficas

Temp. máximas Temp. mínimas Temp. medias Precipitaciones Rachas de viento máximas Velocidades máximas media en intervalos de 10 minutos

Datos horarios

Fecha y hora oficial Temperatura (ºC) Velocidad del viento (km/h) Dirección del viento Racha (km/h) Dirección de racha Precipitación (mm) Presión (hPa) Tendencia (hPa) Humedad (%)
2018-10-19 23:00:00 12.5 0 Calma 11 Este 0 -- -- 83
2018-10-19 22:00:00 13.3 4 Sudeste 6 Nordeste 0 -- -- 79
2018-10-19 21:00:00 13.6 6 Sur 10 Sur 0 -- -- 79
2018-10-19 20:00:00 14.3 7 Sudoeste 10 Sur 0 -- -- 76
2018-10-19 19:00:00 16.1 7 Sur 12 Sur 0 -- -- 67
2018-10-19 18:00:00 15.3 9 Sur 26 Sur 0 -- -- 69
2018-10-19 17:00:00 16.7 15 Sudeste 26 Sur 0 -- -- 56
2018-10-19 16:00:00 17.4 17 Sur 28 Sudeste 0 -- -- 59
2018-10-19 15:00:00 17.4 8 Este 19 Sudeste 0 -- -- 55
2018-10-19 14:00:00 17.4 8 Nordeste 22 Este 0 -- -- 56
2018-10-19 13:00:00 15.3 7 Este 19 Este 0 -- -- 75
2018-10-19 12:00:00 13.8 10 Este 24 Este 0 -- -- 82
2018-10-19 11:00:00 12.4 13 Sudeste 22 Este 0 -- -- 88
2018-10-19 10:00:00 10.1 7 Nordeste 14 Nordeste 0 -- -- 94
2018-10-19 09:00:00 8.3 10 Este 13 Este 0 -- -- 96
2018-10-19 08:00:00 8.4 6 Este 11 Este 0 -- -- 96
2018-10-19 07:00:00 8.4 3 Este 10 Nordeste 0 -- -- 96
2018-10-19 06:00:00 8.8 0 Calma 9 Este 0 -- -- 95
2018-10-19 05:00:00 8.8 4 Nordeste 7 Nordeste 0 -- -- 95
2018-10-19 04:00:00 9.2 5 Este 8 Este 0 -- -- 94
2018-10-19 03:00:00 9.3 6 Este 9 Este 0 -- -- 92
2018-10-19 02:00:00 9.7 6 Este 12 Este 0 -- -- 92
2018-10-19 01:00:00 9.9 6 Este 9 Este 0 -- -- 93
2018-10-19 00:00:00 10.1 4 Nordeste 11 Este 0 -- -- 93
2018-10-18 23:00:00 10.5 6 Sudeste 13 Sudeste 0 -- -- 94
2018-10-18 22:00:00 10.6 9 Sudeste 12 Sudeste 0 -- -- 94
2018-10-18 21:00:00 10.6 8 Nordeste 12 Nordeste 0 -- -- 94
2018-10-18 20:00:00 10.8 6 Nordeste 11 Nordeste 0 -- -- 95
2018-10-18 19:00:00 11.6 8 Nordeste 14 Nordeste 0 -- -- 94
2018-10-18 18:00:00 11.4 7 Nordeste 10 Nordeste 0 -- -- 95
2018-10-18 17:00:00 11.3 6 Nordeste 11 Nordeste 1.4 -- -- 96
2018-10-18 16:00:00 10.9 5 Sur 19 Norte 0.8 -- -- 97
2018-10-18 15:00:00 10.7 3 Este 17 Este 0.4 -- -- 97
2018-10-18 14:00:00 10.3 10 Nordeste 22 Norte 4.8 -- -- 96
2018-10-18 13:00:00 10.6 7 Sudeste 16 Sudoeste 5.6 -- -- 96
2018-10-18 12:00:00 10.7 12 Sudoeste 32 Oeste 4.8 -- -- 96
2018-10-18 11:00:00 11.2 20 Noroeste 37 Oeste 8.6 -- -- 94
2018-10-18 10:00:00 13.7 9 Nordeste 18 Nordeste 5.2 -- -- 95
2018-10-18 09:00:00 13.9 6 Este 17 Sur 6.6 -- -- 93
2018-10-18 08:00:00 14 5 Norte 11 Norte 0 -- -- 93
2018-10-18 07:00:00 14.2 4 Noroeste 13 Oeste 0 -- -- 92
2018-10-18 06:00:00 14.7 2 Norte 9 Nordeste 0.2 -- -- 89
2018-10-18 05:00:00 15 0 Calma 8 Nordeste 0 -- -- 84
2018-10-18 04:00:00 14.6 5 Nordeste 10 Sudeste 0 -- -- 82
2018-10-18 03:00:00 15.8 9 Sudeste 12 Este 0 -- -- 73
2018-10-18 02:00:00 15.4 5 Sudeste 10 Este 0 -- -- 74
2018-10-18 01:00:00 16.3 8 Este 10 Este 0 -- -- 68
2018-10-18 00:00:00 16.4 3 Noroeste 4 Oeste 0 -- -- 66
2018-10-17 23:00:00 17 6 Oeste 14 Oeste 0 -- -- 62
2018-10-17 22:00:00 16.8 10 Sudoeste 15 Sur 0 -- -- 61
2018-10-17 21:00:00 17.9 6 Sur 8 Sudoeste 0 -- -- 56
2018-10-17 20:00:00 19.5 6 Oeste 13 Noroeste 0 -- -- 48
2018-10-17 19:00:00 22 9 Noroeste 15 Noroeste 0 -- -- 42
2018-10-17 18:00:00 22.4 9 Noroeste 19 Noroeste 0 -- -- 39
2018-10-17 17:00:00 22.8 8 Noroeste 18 Noroeste 0 -- -- 43
2018-10-17 16:00:00 22.2 8 Noroeste 18 Oeste 0 -- -- 50
2018-10-17 15:00:00 21.6 6 Sudoeste 12 Noroeste 0 -- -- 49
2018-10-17 14:00:00 20.8 3 Nordeste 8 Noroeste 0 -- -- 58
2018-10-17 13:00:00 19 4 Oeste 8 Nordeste 0 -- -- 67
2018-10-17 12:00:00 17.3 3 Noroeste 8 Noroeste 0 -- -- 81
2018-10-17 11:00:00 14.9 4 Nordeste 10 Nordeste 0 -- -- 89
2018-10-17 10:00:00 13.3 0 Calma 8 Nordeste 0 -- -- 94
2018-10-17 09:00:00 11.8 6 Nordeste 14 Nordeste 0 -- -- 95
2018-10-17 08:00:00 12 9 Nordeste 12 Nordeste 0 -- -- 94
2018-10-17 07:00:00 12.5 4 Este 7 Sudeste 0 -- -- 93
2018-10-17 06:00:00 12.7 4 Sur 5 Este 0 -- -- 93
2018-10-17 05:00:00 12.9 4 Nordeste 6 Sudeste 0 -- -- 93
2018-10-17 04:00:00 13.3 0 Calma 9 Nordeste 0 -- -- 92
2018-10-17 03:00:00 13.5 8 Nordeste 9 Nordeste 0 -- -- 90
2018-10-17 02:00:00 13.7 6 Este 9 Este 0 -- -- 90
2018-10-17 01:00:00 14 2 Sudeste 8 Sur 0 -- -- 88
2018-10-17 00:00:00 14.4 6 Sur 9 Sur 0 -- -- 87
2018-10-16 23:00:00 15.1 6 Sudeste 9 Sudeste 0 -- -- 83
2018-10-16 22:00:00 15.5 4 Sur 9 Sudoeste 0 -- -- 82
2018-10-16 21:00:00 16 4 Sudoeste 9 Oeste 0 -- -- 81
2018-10-16 20:00:00 17 6 Oeste 12 Noroeste 0 -- -- 78
2018-10-16 19:00:00 19.1 7 Oeste 14 Oeste 0 -- -- 68
2018-10-16 18:00:00 18.5 8 Oeste 15 Oeste 0 -- -- 72
2018-10-16 17:00:00 18.6 8 Noroeste 18 Oeste 0 -- -- 70
2018-10-16 16:00:00 18.3 13 Oeste 22 Noroeste 0 -- -- 71
2018-10-16 15:00:00 17.2 11 Noroeste 19 Oeste 0 -- -- 77
2018-10-16 14:00:00 16.7 9 Noroeste 17 Noroeste 0 -- -- 81
2018-10-16 13:00:00 15.9 7 Norte 14 Nordeste 0 -- -- 86
2018-10-16 12:00:00 14.6 6 Noroeste 13 Noroeste 0 -- -- 92
2018-10-16 11:00:00 14 8 Noroeste 13 Noroeste 0 -- -- 96
2018-10-16 10:00:00 13.6 4 Noroeste 9 Noroeste 0 -- -- 97
2018-10-16 09:00:00 13.4 5 Noroeste 9 Norte 0 -- -- 97
2018-10-16 08:00:00 13.4 4 Norte 9 Noroeste 0 -- -- 96
2018-10-16 07:00:00 13.2 3 Nordeste 5 Nordeste 0.2 -- -- 96
2018-10-16 06:00:00 13.2 2 Nordeste 3 Nordeste 0.2 -- -- 96
2018-10-16 05:00:00 13.1 2 Nordeste 5 Nordeste 0.4 -- -- 96
2018-10-16 04:00:00 13.5 0 Calma 14 Sur 0.4 -- -- 95
2018-10-16 03:00:00 13.3 8 Sur 13 Sur 0 -- -- 95
2018-10-16 02:00:00 12.7 2 Este 7 Norte 0 -- -- 95
2018-10-16 01:00:00 12.5 5 Nordeste 17 Nordeste 0 -- -- 95
2018-10-16 00:00:00 12.6 6 Este 14 Este 0.2 -- -- 95
2018-10-15 23:00:00 12.9 6 Este 13 Este 1.2 -- -- 95
2018-10-15 22:00:00 12.9 6 Nordeste 13 Nordeste 1 -- -- 94
2018-10-15 21:00:00 13 6 Nordeste 19 Este 1.6 -- -- 92
2018-10-15 20:00:00 13.8 13 Sudeste 18 Sudeste 1.6 -- -- 91
2018-10-15 19:00:00 14.9 8 Sudoeste 22 Oeste 1.6 -- -- 81
2018-10-15 18:00:00 17.5 3 Oeste 18 Oeste 0 -- -- 57
2018-10-15 17:00:00 18.6 4 Oeste 32 Oeste 0 -- -- 49
2018-10-15 16:00:00 18.3 7 Sudoeste 22 Oeste 0 -- -- 49
2018-10-15 15:00:00 17.5 10 Sudoeste 21 Oeste 0 -- -- 54
2018-10-15 14:00:00 16 9 Sudoeste 20 Oeste 0 -- -- 56
2018-10-15 13:00:00 14.9 9 Sudoeste 21 Sudoeste 0 -- -- 61
2018-10-15 12:00:00 14.2 3 Este 9 Sudeste 0 -- -- 67
2018-10-15 11:00:00 12.2 3 Norte 6 Noroeste 0 -- -- 79
2018-10-15 10:00:00 10.4 2 Oeste 4 Sudoeste 0 -- -- 85
2018-10-15 09:00:00 8.2 0 Calma 8 Sur 0 -- -- 89
2018-10-15 08:00:00 8.3 6 Sur 10 Sur 0 -- -- 89
2018-10-15 07:00:00 8.7 5 Sur 8 Sur 0 -- -- 86
2018-10-15 06:00:00 9.2 0 Calma 6 Noroeste 0 -- -- 85
2018-10-15 05:00:00 9.5 5 Oeste 8 Oeste 0 -- -- 82
2018-10-15 04:00:00 9.8 6 Oeste 10 Noroeste 0 -- -- 80
2018-10-15 03:00:00 10.4 7 Noroeste 13 Oeste 0 -- -- 78
2018-10-15 02:00:00 10.9 4 Noroeste 10 Noroeste 0 -- -- 75
2018-10-15 01:00:00 11.1 0 Calma 6 Oeste 0 -- -- 75
2018-10-15 00:00:00 11.3 5 Oeste 12 Oeste 0 -- -- 75
2018-10-14 23:00:00 11.9 9 Oeste 13 Oeste 0 -- -- 74
2018-10-14 22:00:00 12.5 7 Oeste 11 Oeste 0 -- -- 71
2018-10-14 21:00:00 13.6 3 Sudoeste 12 Noroeste 0 -- -- 64
2018-10-14 20:00:00 14.6 8 Noroeste 26 Noroeste 0 -- -- 57
2018-10-14 19:00:00 16.3 13 Noroeste 36 Noroeste 0 -- -- 52
2018-10-14 18:00:00 16.6 19 Noroeste 32 Oeste 0 -- -- 54
2018-10-14 17:00:00 15.9 20 Oeste 32 Noroeste 0 -- -- 63
2018-10-14 16:00:00 15.9 20 Oeste 36 Oeste 0 -- -- 65
2018-10-14 15:00:00 14.4 21 Oeste 35 Oeste 0 -- -- 80
2018-10-14 14:00:00 14.3 20 Oeste 33 Oeste 0 -- -- 81
2018-10-14 13:00:00 14.4 19 Oeste 32 Oeste 0 -- -- 87
2018-10-14 12:00:00 14.3 24 Oeste 36 Oeste 0 -- -- 92
2018-10-14 11:00:00 14.3 22 Oeste 35 Oeste 1 -- -- 95
2018-10-14 10:00:00 15.5 15 Oeste 28 Oeste 3 -- -- 94
2018-10-14 09:00:00 16.2 13 Sudoeste 40 Oeste 2.4 -- -- 92
2018-10-14 08:00:00 19.1 22 Sur 33 Sur 0 -- -- 64
2018-10-14 07:00:00 18.7 23 Sur 42 Sur 0 -- -- 65
2018-10-14 06:00:00 19.1 24 Sur 40 Sur 0 -- -- 61
2018-10-14 05:00:00 19.6 27 Sur 39 Sur 0 -- -- 58
2018-10-14 04:00:00 20 26 Sur 44 Sur 0 -- -- 54
2018-10-14 03:00:00 20.6 27 Sur 37 Sur 0 -- -- 48
2018-10-14 02:00:00 20.7 27 Sur 40 Sur 0 -- -- 46
2018-10-14 01:00:00 20.9 25 Sur 35 Sur 0 -- -- 45
2018-10-14 00:00:00 20.2 15 Sur 21 Sur 0 -- -- 48
2018-10-13 23:00:00 21.1 12 Sudeste 26 Sur 0 -- -- 44
2018-10-13 22:00:00 20.7 13 Sur 28 Sur 0 -- -- 48
2018-10-13 21:00:00 21.7 19 Sur 28 Sur 0 -- -- 50
2018-10-13 20:00:00 23.3 23 Sur 32 Sur 0 -- -- 42
2018-10-13 19:00:00 25.9 21 Sur 37 Sur 0 -- -- 39
2018-10-13 18:00:00 27.4 23 Sur 37 Sur 0 -- -- 36
2018-10-13 17:00:00 29.1 21 Sur 32 Sur 0 -- -- 29
2018-10-13 16:00:00 29.3 19 Sur 33 Sudeste 0 -- -- 25
2018-10-13 15:00:00 29.2 18 Sur 37 Sur 0 -- -- 22
2018-10-13 14:00:00 28.6 26 Sur 40 Sur 0 -- -- 19
2018-10-13 13:00:00 27.6 19 Sur 32 Sur 0 -- -- 28
2018-10-13 12:00:00 24.9 7 Nordeste 12 Este 0 -- -- 37
2018-10-13 11:00:00 22.8 5 Nordeste 9 Nordeste 0 -- -- 46
2018-10-13 10:00:00 20.5 0 Calma 9 Este 0 -- -- 55
2018-10-13 09:00:00 18.9 6 Este 12 Este 0 -- -- 57
2018-10-13 08:00:00 18.5 9 Este 13 Este 0 -- -- 58
2018-10-13 07:00:00 17.9 5 Este 13 Este 0 -- -- 62
2018-10-13 06:00:00 18.1 9 Este 13 Sudeste 0 -- -- 63
2018-10-13 05:00:00 18 5 Este 8 Este 0 -- -- 63
2018-10-13 04:00:00 18.1 5 Nordeste 6 Este 0 -- -- 61
2018-10-13 03:00:00 18.8 2 Este 6 Este 0 -- -- 58
2018-10-13 02:00:00 19.3 4 Este 11 Sudeste 0 -- -- 57
2018-10-13 01:00:00 19.7 10 Sudeste 12 Sudeste 0 -- -- 55
2018-10-13 00:00:00 20.1 9 Sudeste 13 Sur 0 -- -- 53
2018-10-12 23:00:00 20.7 8 Sur 12 Sur 0 -- -- 53
2018-10-12 22:00:00 21.4 6 Sur 8 Sur 0 -- -- 51
2018-10-12 21:00:00 22.3 5 Sur 12 Oeste 0 -- -- 47
2018-10-12 20:00:00 24.1 8 Noroeste 18 Oeste 0 -- -- 42
2018-10-12 19:00:00 26.8 9 Noroeste 13 Noroeste 0 -- -- 35
2018-10-12 18:00:00 27.6 6 Noroeste 14 Oeste 0 -- -- 34
2018-10-12 17:00:00 27.4 6 Noroeste 21 Oeste 0 -- -- 34
2018-10-12 16:00:00 27.5 7 Noroeste 16 Sudoeste 0 -- -- 35
2018-10-12 15:00:00 27 9 Oeste 16 Sudoeste 0 -- -- 36
2018-10-12 14:00:00 26.2 7 Oeste 13 Oeste 0 -- -- 40
2018-10-12 13:00:00 24.5 4 Nordeste 10 Este 0 -- -- 44
2018-10-12 12:00:00 22.4 3 Norte 9 Nordeste 0 -- -- 53
2018-10-12 11:00:00 19.9 3 Norte 7 Nordeste 0 -- -- 63
2018-10-12 10:00:00 17.9 4 Nordeste 8 Este 0 -- -- 71
2018-10-12 09:00:00 15.4 3 Sudeste 5 Este 0 -- -- 84
2018-10-12 08:00:00 15.2 0 Calma 8 Este 0 -- -- 84
2018-10-12 07:00:00 15.6 5 Este 9 Nordeste 0 -- -- 84
2018-10-12 06:00:00 15.6 7 Este 10 Nordeste 0 -- -- 84
2018-10-12 05:00:00 15.8 5 Este 9 Este 0 -- -- 81
2018-10-12 04:00:00 16 5 Nordeste 8 Este 0 -- -- 79
2018-10-12 03:00:00 16.6 6 Nordeste 8 Nordeste 0 -- -- 73
2018-10-12 02:00:00 17.1 8 Este 11 Este 0 -- -- 71
2018-10-12 01:00:00 17.7 6 Este 9 Este 0 -- -- 68
2018-10-12 00:00:00 18.1 4 Este 8 Este 0 -- -- 65
2018-10-11 23:00:00 18.5 3 Este 11 Oeste 0 -- -- 64
2018-10-11 22:00:00 18.6 8 Oeste 14 Oeste 0 -- -- 64
2018-10-11 21:00:00 19.5 8 Oeste 15 Oeste 0 -- -- 59
2018-10-11 20:00:00 21 9 Noroeste 22 Oeste 0 -- -- 53
2018-10-11 19:00:00 22.9 14 Oeste 23 Oeste 0 -- -- 51
2018-10-11 18:00:00 23.6 9 Sudoeste 19 Sudoeste 0 -- -- 50
2018-10-11 17:00:00 23.1 13 Sudoeste 25 Sudoeste 0 -- -- 54
2018-10-11 16:00:00 20.7 12 Sudoeste 26 Oeste 0 -- -- 67
2018-10-11 15:00:00 22 17 Sudoeste 33 Sur 0 -- -- 58
2018-10-11 14:00:00 21.7 22 Sur 34 Sur 0 -- -- 59
2018-10-11 13:00:00 20.6 15 Sur 24 Sur 0 -- -- 63
2018-10-11 12:00:00 19.9 13 Sur 26 Sur 0 -- -- 64
2018-10-11 11:00:00 19.6 8 Sur 22 Sur 0 -- -- 63
2018-10-11 10:00:00 19.7 9 Sur 20 Sudeste 0 -- -- 61
2018-10-11 09:00:00 18.6 12 Sudeste 18 Sudeste 0 -- -- 63
2018-10-11 08:00:00 17.7 12 Sudeste 16 Sur 0 -- -- 66
2018-10-11 07:00:00 17.9 9 Sudeste 13 Sudeste 0 -- -- 70
2018-10-11 06:00:00 17.4 3 Este 6 Este 0 -- -- 72
2018-10-11 05:00:00 17.4 3 Este 12 Sudeste 0 -- -- 71
2018-10-11 04:00:00 17.5 8 Sudeste 10 Sudeste 0 -- -- 70
2018-10-11 03:00:00 17.6 6 Sur 17 Sur 0 -- -- 67
2018-10-11 02:00:00 17.1 6 Sur 17 Sur 0 -- -- 67
2018-10-11 01:00:00 17.3 13 Sudeste 18 Sur 0 -- -- 69
2018-10-11 00:00:00 17.3 11 Sur 15 Sur 0 -- -- 69
2018-10-10 23:00:00 17.6 11 Sur 16 Sur 0 -- -- 69
2018-10-10 22:00:00 18.1 12 Sur 17 Sur 0 -- -- 69
2018-10-10 21:00:00 19.2 13 Sur 18 Sur 0 -- -- 63
2018-10-10 20:00:00 20.6 13 Sur 28 Sur 0 -- -- 55
2018-10-10 19:00:00 22 20 Sur 32 Sur 0 -- -- 51
2018-10-10 18:00:00 24.4 17 Sur 30 Sur 0 -- -- 42
2018-10-10 17:00:00 24.5 21 Sur 32 Sur 0 -- -- 41
2018-10-10 16:00:00 23.2 13 Sudeste 25 Sur 0 -- -- 47
2018-10-10 15:00:00 23.1 14 Sur 28 Sur 0 -- -- 46
2018-10-10 14:00:00 22.7 18 Sur 28 Sur 0 -- -- 46
2018-10-10 13:00:00 22.4 13 Sudoeste 24 Sur 0 -- -- 48
2018-10-10 12:00:00 20.7 10 Sur 23 Sur 0 -- -- 54
2018-10-10 11:00:00 20.3 9 Sur 15 Sur 0 -- -- 58
2018-10-10 10:00:00 18.2 2 Sudeste 9 Este 0 -- -- 66
2018-10-10 09:00:00 15.1 4 Nordeste 10 Este 0 -- -- 76
2018-10-10 08:00:00 15.3 2 Sur 5 Nordeste 0 -- -- 76
2018-10-10 07:00:00 15.5 3 Norte 6 Noroeste 0 -- -- 75
2018-10-10 06:00:00 16.2 0 Calma 12 Sudeste 0.2 -- -- 72
2018-10-10 05:00:00 16.7 5 Este 8 Sudeste 0 -- -- 68
2018-10-10 04:00:00 16.7 4 Este 11 Sudeste 0 -- -- 67
2018-10-10 03:00:00 17.1 9 Sudeste 12 Sudeste 0 -- -- 66
2018-10-10 02:00:00 17 5 Este 17 Sudeste 0 -- -- 69
2018-10-10 01:00:00 17 14 Sudeste 28 Sudeste 0 -- -- 71
2018-10-10 00:00:00 17.1 13 Sur 27 Sur 0 -- -- 75
2018-10-09 23:00:00 17.5 13 Sur 25 Sur 0 -- -- 76
2018-10-09 22:00:00 17.7 18 Sur 27 Sur 0 -- -- 75
2018-10-09 21:00:00 18 22 Sur -- -- 8 -- -- 72
2018-10-09 20:00:00 19.6 27 Sur 40 Sur 0 -- -- 57
2018-10-09 19:00:00 20.3 26 Sur 39 Sur 0 -- -- 54
2018-10-09 18:00:00 22.6 26 Sur 42 Sur 0 -- -- 45
2018-10-09 17:00:00 23.8 26 Sur 41 Sudoeste 0 -- -- 41
2018-10-09 16:00:00 23.6 24 Sur 36 Sur 0 -- -- 40
2018-10-09 15:00:00 24.6 17 Sur 33 Sur 0 -- -- 37
2018-10-09 14:00:00 23.9 21 Sur 32 Sur 0 -- -- 41
2018-10-09 13:00:00 23.3 16 Sur 30 Sudoeste 0 -- -- 43
2018-10-09 12:00:00 21.7 21 Sur 32 Sur 0 -- -- 47
2018-10-09 11:00:00 20.7 15 Sur 26 Sudeste 0 -- -- 53
2018-10-09 10:00:00 17.5 5 Nordeste 10 Sudeste 0 -- -- 65
2018-10-09 09:00:00 15.1 3 Este 8 Nordeste 0 -- -- 72
2018-10-09 08:00:00 14.9 8 Nordeste 11 Este 0 -- -- 71
2018-10-09 07:00:00 15.4 4 Este 10 Este 0 -- -- 63
2018-10-09 06:00:00 15.4 3 Sudeste 10 Nordeste 0 -- -- 59
2018-10-09 05:00:00 16 5 Este 8 Este 0 -- -- 61
2018-10-09 04:00:00 16.8 6 Este 8 Este 0 -- -- 52
2018-10-09 03:00:00 17 5 Este 6 Este 0 -- -- 53
2018-10-09 02:00:00 17.2 3 Noroeste 11 Norte 0 -- -- 53
2018-10-09 01:00:00 18.3 0 Calma 8 Sur 0 -- -- 59
2018-10-09 00:00:00 18.5 5 Sur 9 Sur 0 -- -- 67
2018-10-08 23:00:00 19.4 4 Sur 7 Sudoeste 0 -- -- 61
2018-10-08 22:00:00 20.1 7 Sudoeste 14 Sudoeste 0 -- -- 51
2018-10-08 21:00:00 21.5 12 Sudoeste 17 Sudoeste 0 -- -- 51
2018-10-08 20:00:00 23.2 5 Oeste 22 Oeste 0 -- -- 33
2018-10-08 19:00:00 25 14 Oeste 30 Oeste 0 -- -- 30
2018-10-08 18:00:00 25.4 19 Noroeste 31 Noroeste 0 -- -- 29
2018-10-08 17:00:00 25.5 17 Noroeste 34 Noroeste 0 -- -- 27
2018-10-08 16:00:00 25.5 16 Noroeste 31 Noroeste 0 -- -- 27
2018-10-08 15:00:00 25.2 14 Noroeste 26 Oeste 0 -- -- 29
2018-10-08 14:00:00 25.1 13 Oeste 23 Oeste 0 -- -- 34
2018-10-08 13:00:00 24.1 14 Oeste 26 Sudoeste 0 -- -- 38
2018-10-08 12:00:00 22 3 Sudoeste 10 Nordeste 0 -- -- 42
2018-10-08 11:00:00 18.7 6 Nordeste 13 Nordeste 0 -- -- 42
2018-10-08 10:00:00 15.8 9 Nordeste 14 Nordeste 0 -- -- 50
2018-10-08 09:00:00 13.9 11 Nordeste 15 Nordeste 0 -- -- 56
2018-10-08 08:00:00 14.7 9 Este 11 Nordeste 0 -- -- 53
2018-10-08 07:00:00 15.4 7 Nordeste 12 Este 0 -- -- 44
2018-10-08 06:00:00 15 6 Sur 8 Sur 0 -- -- 42
2018-10-08 05:00:00 16.1 6 Sudeste 9 Sudeste 0 -- -- 39
2018-10-08 04:00:00 17.4 2 Este 5 Este 0 -- -- 36
2018-10-08 03:00:00 17.8 4 Este 8 Este 0 -- -- 35
2018-10-08 02:00:00 18 4 Sudeste 10 Sur 0 -- -- 34
2018-10-08 01:00:00 19.1 8 Sur 13 Sur 0 -- -- 32
2018-10-08 00:00:00 19.8 7 Sur 14 Sudoeste 0 -- -- 30
2018-10-07 23:00:00 20.9 6 Oeste 17 Oeste 0 -- -- 27
2018-10-07 22:00:00 22.1 13 Oeste 20 Sudoeste 0 -- -- 26
2018-10-07 21:00:00 23 12 Oeste 18 Sudoeste 0 -- -- 30
2018-10-07 20:00:00 25 13 Oeste 31 Oeste 0 -- -- 25
2018-10-07 19:00:00 27.2 18 Oeste 35 Sudoeste 0 -- -- 21
2018-10-07 18:00:00 28.5 14 Oeste 30 Noroeste 0 -- -- 23
2018-10-07 17:00:00 28.4 15 Noroeste 28 Noroeste 0 -- -- 24
2018-10-07 16:00:00 28.2 15 Oeste 28 Noroeste 0 -- -- 23
2018-10-07 15:00:00 27.8 8 Oeste 27 Oeste 0 -- -- 26
2018-10-07 14:00:00 27.2 6 Oeste 19 Oeste 0 -- -- 28
2018-10-07 13:00:00 25.8 8 Oeste 17 Oeste 0 -- -- 30
2018-10-07 12:00:00 23.6 6 Norte 10 Nordeste 0 -- -- 36
2018-10-07 11:00:00 20.7 6 Nordeste 11 Nordeste 0 -- -- 45
2018-10-07 10:00:00 17.5 7 Nordeste 14 Nordeste 0 -- -- 55
2018-10-07 09:00:00 15.7 8 Nordeste 14 Nordeste 0 -- -- 60
2018-10-07 08:00:00 16.8 6 Este 9 Nordeste 0 -- -- 56
2018-10-07 07:00:00 16.6 6 Nordeste 8 Nordeste 0 -- -- 57
2018-10-07 06:00:00 16.6 4 Nordeste 10 Sudeste 0 -- -- 56
2018-10-07 05:00:00 18.6 9 Sudeste 12 Sudeste 0 -- -- 52
2018-10-07 04:00:00 18.6 6 Sudeste 8 Este 0 -- -- 52
2018-10-07 03:00:00 18.5 3 Este 9 Nordeste 0 -- -- 45
2018-10-07 02:00:00 19 5 Nordeste 9 Nordeste 0 -- -- 42
2018-10-07 01:00:00 19.4 8 Nordeste 10 Sur 0 -- -- 41
2018-10-07 00:00:00 20.6 4 Sur 10 Sur 0 -- -- 39
2018-10-06 23:00:00 20.8 9 Sur 21 Sur 0 -- -- 37
2018-10-06 22:00:00 21.4 16 Sur 21 Sur 0 -- -- 36
2018-10-06 21:00:00 23.1 18 Sur 23 Sur 0 -- -- 31
2018-10-06 20:00:00 25.7 15 Sur 20 Sur 0 -- -- 25
2018-10-06 19:00:00 28.8 13 Oeste 30 Oeste 0 -- -- 15
2018-10-06 18:00:00 29.8 15 Oeste 24 Oeste 0 -- -- 15
2018-10-06 17:00:00 29.8 13 Oeste 23 Sudoeste 0 -- -- 16
2018-10-06 16:00:00 29.5 13 Oeste 24 Sudoeste 0 -- -- 16
2018-10-06 15:00:00 29.1 13 Sudoeste 22 Sudoeste 0 -- -- 17
2018-10-06 14:00:00 28.1 8 Oeste 27 Sudoeste 0 -- -- 20
2018-10-06 13:00:00 26.7 10 Sur 18 Sudoeste 0 -- -- 21
2018-10-06 12:00:00 24.2 3 Noroeste 8 Norte 0 -- -- 32
2018-10-06 11:00:00 20.9 5 Nordeste 11 Este 0 -- -- 44
2018-10-06 10:00:00 18.6 4 Nordeste 10 Sudeste 0 -- -- 50
2018-10-06 09:00:00 15.6 9 Sudeste 13 Sur 0 -- -- 65
2018-10-06 08:00:00 16.1 8 Este 18 Sudeste 0 -- -- 54
2018-10-06 07:00:00 16.3 5 Sudeste 16 Este 0 -- -- 50
2018-10-06 06:00:00 16.2 6 Este 15 Sudeste 0 -- -- 49
2018-10-06 05:00:00 17.3 8 Este 10 Este 0 -- -- 45
2018-10-06 04:00:00 17.2 4 Este 16 Sudeste 0 -- -- 48
2018-10-06 03:00:00 17 11 Sur 16 Sudeste 0 -- -- 50
2018-10-06 02:00:00 17.7 7 Sur 14 Sur 0 -- -- 45
2018-10-06 01:00:00 17.7 9 Sur 17 Sudeste 0 -- -- 45
2018-10-06 00:00:00 18.1 13 Sudeste 17 Sudeste 0 -- -- 44
2018-10-05 23:00:00 18.4 9 Sur 14 Sur 0 -- -- 47
2018-10-05 22:00:00 19.5 6 Sur 21 Sur 0 -- -- 44
2018-10-05 21:00:00 20.7 17 Sur 27 Sur 0 -- -- 35
2018-10-05 20:00:00 22.6 18 Sur 32 Sur 0 -- -- 32
2018-10-05 19:00:00 25.6 23 Sur 33 Sur 0 -- -- 30
2018-10-05 18:00:00 27.1 19 Sur 30 Sur 0 -- -- 25
2018-10-05 17:00:00 27.8 19 Sur 32 Sur 0 -- -- 26
2018-10-05 16:00:00 28.2 21 Sur 35 Sur 0 -- -- 25
2018-10-05 15:00:00 28.1 17 Sur 31 Sur 0 -- -- 24
2018-10-05 14:00:00 27.3 17 Sur 28 Sur 0 -- -- 20
2018-10-05 13:00:00 26.6 19 Sur 30 Sur 0 -- -- 18
2018-10-05 12:00:00 24 8 Nordeste 13 Nordeste 0 -- -- 27
2018-10-05 11:00:00 21.2 6 Nordeste 9 Este 0 -- -- 33
2018-10-05 10:00:00 17.9 8 Nordeste 14 Sudeste 0 -- -- 41
2018-10-05 09:00:00 15.8 5 Sudeste 14 Sudeste 0 -- -- 42
2018-10-05 08:00:00 15.7 3 Nordeste 9 Este 0 -- -- 41
2018-10-05 07:00:00 15.3 3 Nordeste 11 Nordeste 0 -- -- 47
2018-10-05 06:00:00 16.7 7 Nordeste 9 Nordeste 0 -- -- 41
2018-10-05 05:00:00 17.1 7 Sudeste 10 Sudeste 0 -- -- 35
2018-10-05 04:00:00 18 8 Sudeste 13 Este 0 -- -- 33
2018-10-05 03:00:00 18.9 10 Sudeste 18 Sudeste 0 -- -- 28
2018-10-05 02:00:00 18 11 Sudeste 13 Sur 0 -- -- 32
2018-10-05 01:00:00 18.8 10 Sur 18 Sudeste 0 -- -- 31
2018-10-05 00:00:00 18.3 9 Sudeste 14 Sudeste 0 -- -- 33
2018-10-04 23:00:00 19.2 8 Sudeste 13 Sudeste 0 -- -- 33
2018-10-04 22:00:00 19.6 9 Sudeste 19 Sur 0 -- -- 34
2018-10-04 21:00:00 21 15 Sur 27 Sur 0 -- -- 28
2018-10-04 20:00:00 23.2 21 Sur 32 Sudoeste 0 -- -- 26
2018-10-04 19:00:00 26.2 21 Sur 30 Sudoeste 0 -- -- 21
2018-10-04 18:00:00 27.6 18 Sur 27 Sur 0 -- -- 20
2018-10-04 17:00:00 28.3 17 Sur 28 Sur 0 -- -- 20
2018-10-04 16:00:00 28.4 14 Sur 31 Sur 0 -- -- 19
2018-10-04 15:00:00 28.4 15 Sur 26 Sur 0 -- -- 18
2018-10-04 14:00:00 27.8 8 Sudeste 21 Sudeste 0 -- -- 17
2018-10-04 13:00:00 26.9 9 Sudeste 20 Sudeste 0 -- -- 18
2018-10-04 12:00:00 24 8 Nordeste 12 Nordeste 0 -- -- 30
2018-10-04 11:00:00 20.9 9 Nordeste 15 Nordeste 0 -- -- 41
2018-10-04 10:00:00 18 9 Nordeste 13 Nordeste 0 -- -- 50
2018-10-04 09:00:00 15.5 5 Nordeste 15 Nordeste 0 -- -- 56
2018-10-04 08:00:00 15.7 10 Nordeste 13 Nordeste 0 -- -- 54
2018-10-04 07:00:00 16 6 Este 10 Nordeste 0 -- -- 50
2018-10-04 06:00:00 16.4 4 Nordeste 7 Este 0 -- -- 45
2018-10-04 05:00:00 17.2 5 Este 14 Este 0 -- -- 42
2018-10-04 04:00:00 17.6 3 Este 16 Sudeste 0 -- -- 38
2018-10-04 03:00:00 18.5 6 Este 8 Este 0 -- -- 39
2018-10-04 02:00:00 17.7 3 Oeste 7 Sur 0 -- -- 45
2018-10-04 01:00:00 18 6 Sur 18 Sur 0 -- -- 43
2018-10-04 00:00:00 18.9 15 Sur 26 Sur 0 -- -- 41
2018-10-03 23:00:00 18.9 17 Sur 23 Sur 0 -- -- 43
2018-10-03 22:00:00 19.8 17 Sur 22 Sur 0 -- -- 36
2018-10-03 21:00:00 21.4 20 Sur 29 Sudoeste 0 -- -- 28
2018-10-03 20:00:00 22.9 22 Sudoeste 34 Sudoeste 0 -- -- 26
2018-10-03 19:00:00 25.2 23 Sudoeste 32 Sudoeste 0 -- -- 29
2018-10-03 18:00:00 26.9 19 Sur 31 Sudoeste 0 -- -- 31
2018-10-03 17:00:00 27.8 15 Sur 27 Sur 0 -- -- 28
2018-10-03 16:00:00 28 11 Sur 24 Sur 0 -- -- 23
2018-10-03 15:00:00 27.6 12 Sudeste 25 Sur 0 -- -- 26
2018-10-03 14:00:00 27 8 Este 20 Sur 0 -- -- 25
2018-10-03 13:00:00 25.3 5 Sur 10 Sur 0 -- -- 32
2018-10-03 12:00:00 23.1 3 Este 9 Nordeste 0 -- -- 39
2018-10-03 11:00:00 20.6 5 Nordeste 14 Nordeste 0 -- -- 52
2018-10-03 10:00:00 18.2 5 Este 13 Nordeste 0 -- -- 63
2018-10-03 09:00:00 15.9 5 Este 10 Sudeste 0 -- -- 70
2018-10-03 08:00:00 15.8 7 Este 13 Este 0 -- -- 71
2018-10-03 07:00:00 16.1 6 Este 11 Este 0 -- -- 69
2018-10-03 06:00:00 16.4 6 Nordeste 11 Este 0 -- -- 67
2018-10-03 05:00:00 17 6 Este 9 Este 0 -- -- 65
2018-10-03 04:00:00 17.6 6 Este 15 Sudeste 0 -- -- 64
2018-10-03 03:00:00 18.2 11 Sudeste 21 Sudeste 0 -- -- 65
2018-10-03 02:00:00 18 13 Sudeste 18 Sudeste 0 -- -- 64
2018-10-03 01:00:00 17.8 11 Sur 14 Sur 0 -- -- 69
2018-10-03 00:00:00 18.4 6 Sur 14 Sur 0 -- -- 66
2018-10-02 23:00:00 19.4 13 Sur 23 Sur 0 -- -- 62
2018-10-02 22:00:00 20.4 17 Sur 31 Sur 0 -- -- 59
2018-10-02 21:00:00 21.9 19 Sur 31 Sur 0 -- -- 53
2018-10-02 20:00:00 24.5 20 Sur 31 Sudoeste 0 -- -- 44
2018-10-02 19:00:00 28.4 10 Noroeste 22 Noroeste 0 -- -- 6
2018-10-02 18:00:00 29 12 Norte 26 Norte 0 -- -- 7
2018-10-02 17:00:00 29.5 16 Noroeste 26 Noroeste 0 -- -- 9
2018-10-02 16:00:00 29.3 12 Norte 26 Noroeste 0 -- -- 11
2018-10-02 15:00:00 29 8 Sur 27 Oeste 0 -- -- 20
2018-10-02 14:00:00 28.1 9 Oeste 18 Noroeste 0 -- -- 23
2018-10-02 13:00:00 26.7 7 Oeste 12 Oeste 0 -- -- 28
2018-10-02 12:00:00 23.9 5 Nordeste 10 Nordeste 0 -- -- 43
2018-10-02 11:00:00 21.1 5 Nordeste 12 Nordeste 0 -- -- 47
2018-10-02 10:00:00 18.2 9 Nordeste 14 Nordeste 0 -- -- 60
2018-10-02 09:00:00 15.7 11 Nordeste 14 Nordeste 0 -- -- 74
2018-10-02 08:00:00 16.1 6 Este 14 Nordeste 0 -- -- 69
2018-10-02 07:00:00 16.4 3 Este 14 Este 0 -- -- 69
2018-10-02 06:00:00 16.8 13 Nordeste 15 Nordeste 0 -- -- 70
2018-10-02 05:00:00 18.2 4 Este 10 Este 0 -- -- 62
2018-10-02 04:00:00 18.6 8 Nordeste 10 Este 0 -- -- 60
2018-10-02 03:00:00 20 2 Sudeste 8 Nordeste 0 -- -- 56
2018-10-02 02:00:00 20.9 0 Calma 9 Nordeste 0 -- -- 54
2018-10-02 01:00:00 21.6 8 Nordeste 15 Nordeste 0 -- -- 48
2018-10-02 00:00:00 21.9 11 Nordeste 14 Nordeste 0 -- -- 42
2018-10-01 23:00:00 22.9 4 Oeste 15 Oeste 0 -- -- 36
2018-10-01 22:00:00 25.5 5 Este 8 Norte 0 -- -- 32
2018-10-01 21:00:00 25.7 3 Noroeste 10 Noroeste 0 -- -- 30
2018-10-01 20:00:00 27 7 Norte 16 Noroeste 0 -- -- 28
2018-10-01 19:00:00 28.7 10 Norte 22 Noroeste 0 -- -- 26
2018-10-01 18:00:00 29.6 13 Oeste 25 Oeste 0 -- -- 26
2018-10-01 17:00:00 29.5 12 Noroeste 27 Oeste 0 -- -- 30
2018-10-01 16:00:00 28.9 13 Noroeste 23 Oeste 0 -- -- 31
2018-10-01 15:00:00 28.4 13 Oeste 23 Norte 0 -- -- 32
2018-10-01 14:00:00 27.1 10 Noroeste 20 Noroeste 0 -- -- 33
2018-10-01 13:00:00 25.9 7 Noroeste 14 Noroeste 0 -- -- 36
2018-10-01 12:00:00 24.1 5 Nordeste 10 Norte 0 -- -- 44
2018-10-01 11:00:00 22.1 5 Nordeste 9 Nordeste 0 -- -- 54
2018-10-01 10:00:00 19 3 Nordeste 6 Nordeste 0 -- -- 66
2018-10-01 09:00:00 18.4 5 Este 9 Sudeste 0 -- -- 62
2018-10-01 08:00:00 18 5 Sur 10 Sudeste 0 -- -- 63
2018-10-01 07:00:00 18.7 6 Sudeste 10 Este 0 -- -- 60
2018-10-01 06:00:00 19.2 2 Sudeste 4 Sudeste 0 -- -- 57
2018-10-01 05:00:00 19.1 3 Norte 8 Noroeste 0 -- -- 57
2018-10-01 04:00:00 19.7 4 Sudeste 10 Sur 0 -- -- 55
2018-10-01 03:00:00 20.5 9 Sudeste 11 Sudeste 0 -- -- 53
2018-10-01 02:00:00 20.3 10 Sur 12 Sur 0 -- -- 53
2018-10-01 01:00:00 21.2 10 Sur 12 Sur 0 -- -- 50
2018-10-01 00:00:00 21.9 4 Sudoeste 12 Oeste 0 -- -- 46
2018-09-30 23:00:00 23 8 Oeste 17 Oeste 0 -- -- 41
2018-09-30 22:00:00 23.9 10 Oeste 14 Oeste 0 -- -- 40
2018-09-30 21:00:00 25.2 6 Noroeste 12 Noroeste 0 -- -- 37
2018-09-30 20:00:00 26.4 8 Noroeste 20 Noroeste 0 -- -- 32
2018-09-30 19:00:00 28.8 12 Noroeste 20 Oeste 0 -- -- 26
2018-09-30 18:00:00 29.6 9 Oeste 22 Nordeste 0 -- -- 25
2018-09-30 17:00:00 29.7 7 Sudoeste 40 Sur 0 -- -- 29
2018-09-30 16:00:00 29 5 Noroeste 15 Oeste 0 -- -- 31
2018-09-30 15:00:00 28 3 Sudeste 14 Oeste 0 -- -- 33
2018-09-30 14:00:00 27 4 Norte 12 Oeste 0 -- -- 35
2018-09-30 13:00:00 25.9 4 Norte 10 Oeste 0 -- -- 38
2018-09-30 12:00:00 24.1 3 Sudoeste 8 Nordeste 0 -- -- 44
2018-09-30 11:00:00 21.8 5 Nordeste 9 Nordeste 0 -- -- 58
2018-09-30 10:00:00 19.8 5 Sur 10 Sur 0 -- -- 65
2018-09-30 09:00:00 16.9 9 Sur 15 Sur 0 -- -- 83
2018-09-30 08:00:00 16.5 10 Sur 16 Sur 0 -- -- 86
2018-09-30 07:00:00 16.8 12 Sur 16 Sur 0 -- -- 84
2018-09-30 06:00:00 17.4 9 Sur 12 Sur 0 -- -- 78
2018-09-30 05:00:00 17.8 7 Sur 14 Sur 0 -- -- 74
2018-09-30 04:00:00 17.8 11 Sur 14 Sur 0 -- -- 71
2018-09-30 03:00:00 18.4 6 Sur 14 Sur 0 -- -- 67
2018-09-30 02:00:00 19 4 Sudeste 18 Sur 0 -- -- 63
2018-09-30 01:00:00 19.4 13 Sur 23 Sur 0 -- -- 61
2018-09-30 00:00:00 20.2 17 Sur 22 Sur 0 -- -- 59
2018-09-29 23:00:00 21 17 Sur 22 Sur 0 -- -- 56
2018-09-29 22:00:00 21.9 15 Sur 19 Sur 0 -- -- 53
2018-09-29 21:00:00 23.3 14 Sur 21 Sur 0 -- -- 48
2018-09-29 20:00:00 25.6 17 Sudoeste 24 Sur 0 -- -- 41
2018-09-29 19:00:00 28.9 9 Sudoeste 20 Oeste 0 -- -- 29
2018-09-29 18:00:00 29.7 7 Sudoeste 18 Sudoeste 0 -- -- 29
2018-09-29 17:00:00 29.7 6 Sudoeste 17 Noroeste 0 -- -- 30
2018-09-29 16:00:00 28.9 5 Sudoeste 17 Sudoeste 0 -- -- 32
2018-09-29 15:00:00 27.8 6 Noroeste 18 Oeste 0 -- -- 34
2018-09-29 14:00:00 26.8 6 Sudeste 14 Sur 0 -- -- 38
2018-09-29 13:00:00 24.7 4 Noroeste 10 Noroeste 0 -- -- 47
2018-09-29 12:00:00 23.5 2 Sur 10 Este 0 -- -- 51
2018-09-29 11:00:00 21.2 5 Nordeste 10 Nordeste 0 -- -- 62
2018-09-29 10:00:00 19.6 2 Este 5 Este 0 -- -- 68
2018-09-29 09:00:00 16.2 4 Sudeste 9 Sur 0 -- -- 82
2018-09-29 08:00:00 16.1 5 Sur 10 Este 0 -- -- 81
2018-09-29 07:00:00 17.2 8 Sudeste 11 Sudeste 0 -- -- 78
2018-09-29 06:00:00 17.4 5 Este 7 Sur 0 -- -- 76
2018-09-29 05:00:00 17.4 4 Sur 6 Sur 0 -- -- 77
2018-09-29 04:00:00 17.3 4 Sudeste 12 Sudeste 0 -- -- 78
2018-09-29 03:00:00 17.3 9 Sur 17 Sur 0 -- -- 78
2018-09-29 02:00:00 18 13 Sur 18 Sur 0 -- -- 76
2018-09-29 01:00:00 18.3 11 Sur 21 Sur 0 -- -- 74
2018-09-29 00:00:00 18.9 15 Sur 24 Sur 0 -- -- 69
2018-09-28 23:00:00 19.6 16 Sur 23 Sur 0 -- -- 66
2018-09-28 22:00:00 20.4 15 Sur 24 Sur 0 -- -- 62
2018-09-28 21:00:00 21.6 18 Sur 24 Sur 0 -- -- 57
2018-09-28 20:00:00 23.7 13 Sudoeste 21 Sudoeste 0 -- -- 50
2018-09-28 19:00:00 25.7 15 Sudoeste 26 Oeste 0 -- -- 44
2018-09-28 18:00:00 27.6 5 Sudoeste 13 Oeste 0 -- -- 39
2018-09-28 17:00:00 27.6 7 Oeste 18 Sur 0 -- -- 39
2018-09-28 16:00:00 26.4 9 Sudeste 25 Sudoeste 0 -- -- 44
2018-09-28 15:00:00 25.8 15 Sur 24 Sur 0 -- -- 47
2018-09-28 14:00:00 25.7 9 Sur 20 Sur 0 -- -- 46
2018-09-28 13:00:00 24.3 12 Sur 22 Sur 0 -- -- 53
2018-09-28 12:00:00 22.6 5 Sudeste 14 Nordeste 0 -- -- 59
2018-09-28 11:00:00 20.6 6 Nordeste 10 Nordeste 0 -- -- 69
2018-09-28 10:00:00 19.2 5 Este 11 Este 0 -- -- 76
2018-09-28 09:00:00 18.3 4 Este 12 Este 0 -- -- 79
2018-09-28 08:00:00 17.8 7 Sudeste 9 Sudeste 0 -- -- 83
2018-09-28 07:00:00 17.7 3 Sur 11 Este 0 -- -- 80
2018-09-28 06:00:00 18 3 Nordeste 9 Este 0 -- -- 80
2018-09-28 05:00:00 18.2 2 Oeste 16 Sudeste 0 -- -- 80
2018-09-28 04:00:00 18.3 8 Sur 15 Sur 0 -- -- 84
2018-09-28 03:00:00 18.4 5 Sur 9 Sur 0 -- -- 77
2018-09-28 02:00:00 19.1 3 Oeste 16 Sur 0 -- -- 70
2018-09-28 01:00:00 18.9 11 Sur 18 Sur 0 -- -- 69
2018-09-28 00:00:00 19.5 10 Sur 16 Sudoeste 0 -- -- 67
2018-09-27 23:00:00 20.4 15 Sur 25 Sur 0 -- -- 62
2018-09-27 22:00:00 21 19 Sur 31 Sudoeste 0 -- -- 59
2018-09-27 21:00:00 22 22 Sur 32 Sudoeste 0 -- -- 54
2018-09-27 20:00:00 24.1 22 Sudoeste 31 Sudoeste 0 -- -- 47
2018-09-27 19:00:00 27 10 Sudoeste 21 Sudoeste 0 -- -- 39
2018-09-27 18:00:00 27.5 9 Sur 26 Sur 0 -- -- 38
2018-09-27 17:00:00 27.3 12 Sudoeste 22 Sur 0 -- -- 39
2018-09-27 16:00:00 28.5 12 Oeste 20 Oeste 0 -- -- 36
2018-09-27 15:00:00 27.6 6 Sudeste 14 Este 0 -- -- 38
2018-09-27 14:00:00 26.4 4 Noroeste 12 Nordeste 0 -- -- 42
2018-09-27 13:00:00 25.7 4 Sudoeste 12 Sur 0 -- -- 55
2018-09-27 12:00:00 24.5 4 Nordeste 15 Sudeste 0 -- -- 58
2018-09-27 11:00:00 22.8 5 Este 12 Nordeste 0 -- -- 67
2018-09-27 10:00:00 19.3 4 Nordeste 8 Nordeste 0 -- -- 85
2018-09-27 09:00:00 18.4 2 Este 9 Este 0 -- -- 87
2018-09-27 08:00:00 17.9 6 Nordeste 9 Nordeste 0 -- -- 90
2018-09-27 07:00:00 18.1 2 Sudeste 9 Nordeste 0 -- -- 90
2018-09-27 06:00:00 -- -- -- -- -- -- -- -- --
2018-09-27 05:00:00 19.1 2 Norte 9 Nordeste 0 -- -- 87
2018-09-27 04:00:00 19.7 5 Este 11 Sudeste 0 -- -- 78
2018-09-27 03:00:00 20 4 Sudeste 10 Este 0 -- -- 77
2018-09-27 02:00:00 20.8 8 Sudeste 10 Sudeste 0 -- -- 71
2018-09-27 01:00:00 20.5 6 Sudeste 13 Sur 0 -- -- 71
2018-09-27 00:00:00 20.8 11 Sudeste 22 Sudeste 0 -- -- 69
2018-09-26 23:00:00 21.3 13 Sudeste 24 Sudeste 0 -- -- 66
2018-09-26 22:00:00 22.1 13 Sudeste 21 Sudeste 0 -- -- 60
2018-09-26 21:00:00 22.8 16 Sur 30 Sur 0 -- -- 57
2018-09-26 20:00:00 23.5 18 Sur 34 Sur 0 -- -- 55
2018-09-26 19:00:00 24.3 22 Sur 32 Sur 0.2 -- -- 58
2018-09-26 18:00:00 23.2 8 Sudeste 39 Nordeste 2.6 -- -- 73
2018-09-26 17:00:00 28.3 31 Sur 46 Sur 0 -- -- 41
2018-09-26 16:00:00 28.7 27 Sur 41 Sur 0 -- -- 39
2018-09-26 15:00:00 28.5 26 Sur 40 Sudeste 0 -- -- 40
2018-09-26 14:00:00 28 24 Sur 36 Sudeste 0 -- -- 41
2018-09-26 13:00:00 27.3 22 Sudeste 33 Sur 0 -- -- 44
2018-09-26 12:00:00 25.5 27 Sur 38 Sur 0 -- -- 48
2018-09-26 11:00:00 25.5 15 Sudeste 25 Sur 0 -- -- 51
2018-09-26 10:00:00 23.5 17 Sudeste 25 Sur 0 -- -- 60
2018-09-26 09:00:00 22 16 Sudeste 28 Sudeste 0 -- -- 67
2018-09-26 08:00:00 21.5 15 Sudeste 30 Sudeste 0 -- -- 67
2018-09-26 07:00:00 21.9 16 Sudeste 32 Sudeste 0 -- -- 67
2018-09-26 06:00:00 21.9 17 Sudeste 31 Sudeste 0 -- -- 68
2018-09-26 05:00:00 22 12 Sudeste 39 Sudeste 0 -- -- 64
2018-09-26 04:00:00 22.4 24 Sudeste 35 Sudeste 0 -- -- 63
2018-09-26 03:00:00 22.5 15 Sudeste 42 Sudeste 0 -- -- 59
2018-09-26 02:00:00 22.6 26 Sur 40 Sudeste 0 -- -- 60
2018-09-26 01:00:00 23 15 Sur 28 Sudeste 0 -- -- 55
2018-09-26 00:00:00 23.1 21 Sur 33 Sur 0 -- -- 58
2018-09-25 23:00:00 22.4 24 Sur 31 Sur 0 -- -- 58
2018-09-25 22:00:00 22.7 15 Sur 24 Sur 0 -- -- 59
2018-09-25 21:00:00 23.9 15 Sur 29 Sur 0 -- -- 53
2018-09-25 20:00:00 26.3 13 Sudoeste 35 Sudoeste 0 -- -- 43
2018-09-25 19:00:00 28.3 26 Sudoeste 36 Sudoeste 0 -- -- 35
2018-09-25 18:00:00 30.5 21 Sur 33 Sudoeste 0 -- -- 29
2018-09-25 17:00:00 31.4 19 Sur 31 Sur 0 -- -- 24
2018-09-25 16:00:00 31.5 19 Sur 34 Sur 0 -- -- 27
2018-09-25 15:00:00 31.2 23 Sur 36 Sudeste 0 -- -- 26
2018-09-25 14:00:00 30.8 22 Sur 34 Sur 0 -- -- 22
2018-09-25 13:00:00 30.6 19 Sur 33 Sur 0 -- -- 22
2018-09-25 12:00:00 29.3 13 Sur 21 Sur 0 -- -- 24
2018-09-25 11:00:00 26.1 3 Norte 9 Nordeste 0 -- -- 33
2018-09-25 10:00:00 22.7 5 Nordeste 10 Sur 0 -- -- 39
2018-09-25 09:00:00 20.8 7 Sur 10 Sur 0 -- -- 37
2018-09-25 08:00:00 20.9 8 Sudeste 12 Sudeste 0 -- -- 34
2018-09-25 07:00:00 21 8 Sudeste 12 Sur 0 -- -- 35
2018-09-25 06:00:00 21 10 Sudeste 14 Sur 0 -- -- 33
2018-09-25 05:00:00 21.9 9 Sur 10 Sur 0 -- -- 34
2018-09-25 04:00:00 23.7 5 Este 9 Sudeste 0 -- -- 31
2018-09-25 03:00:00 23.8 5 Sur 8 Sur 0 -- -- 31
2018-09-25 02:00:00 24.4 3 Nordeste 17 Sudeste 0 -- -- 31
2018-09-25 01:00:00 25.5 14 Sudeste 21 Sudeste 0 -- -- 27
2018-09-25 00:00:00 24.9 14 Sudeste 22 Sur 0 -- -- 28
2018-09-24 23:00:00 25.3 13 Sur 26 Sur 0 -- -- 26
2018-09-24 22:00:00 26.6 16 Sur 30 Sur 0 -- -- 24
2018-09-24 21:00:00 27.9 21 Sur 29 Sur 0 -- -- 22
2018-09-24 20:00:00 30 19 Sur 30 Sur 0 -- -- 19
2018-09-24 19:00:00 32 22 Sur 35 Sudoeste 0 -- -- 17
2018-09-24 18:00:00 33.5 21 Sudoeste 36 Sur 0 -- -- 15
2018-09-24 17:00:00 35 9 Sur 22 Sudoeste 0 -- -- 13
2018-09-24 16:00:00 34.4 8 Noroeste 16 Noroeste 0 -- -- 14
2018-09-24 15:00:00 33 6 Nordeste 19 Oeste 0 -- -- 15
2018-09-24 14:00:00 33 4 Sudoeste 16 Noroeste 0 -- -- 15
2018-09-24 13:00:00 31.5 4 Noroeste 10 Norte 0 -- -- 16
2018-09-24 12:00:00 29 6 Nordeste 10 Nordeste 0 -- -- 23
2018-09-24 11:00:00 25.5 8 Nordeste 13 Nordeste 0 -- -- 36
2018-09-24 10:00:00 22.3 8 Nordeste 13 Nordeste 0 -- -- 42
2018-09-24 09:00:00 20.4 8 Nordeste 15 Nordeste 0 -- -- 47
2018-09-24 08:00:00 20.5 6 Este 11 Nordeste 0 -- -- 41
2018-09-24 07:00:00 21.4 5 Este 11 Este 0 -- -- 37
2018-09-24 06:00:00 21.7 4 Sudeste 11 Este 0 -- -- 32
2018-09-24 05:00:00 22 5 Sur 8 Este 0 -- -- 33
2018-09-24 04:00:00 22.9 5 Sudeste 14 Sudeste 0 -- -- 29
2018-09-24 03:00:00 24.1 9 Este 13 Sudeste 0 -- -- 23
2018-09-24 02:00:00 24.3 4 Este 10 Sur 0 -- -- 22
2018-09-24 01:00:00 23.8 9 Sur 13 Sur 0 -- -- 25
2018-09-24 00:00:00 23.9 7 Sur 20 Sur 0 -- -- 27
2018-09-23 23:00:00 24.3 13 Sur 22 Sur 0 -- -- 28
2018-09-23 22:00:00 25.4 17 Sur 24 Sur 0 -- -- 26
2018-09-23 21:00:00 27.4 19 Sur 31 Sur 0 -- -- 19
2018-09-23 20:00:00 29.7 21 Sur 30 Sur 0 -- -- 14
2018-09-23 19:00:00 32 21 Sudoeste 33 Sur 0 -- -- 15
2018-09-23 18:00:00 33 24 Sudoeste 37 Sudoeste 0 -- -- 14
2018-09-23 17:00:00 34.5 10 Sudoeste 17 Sudoeste 0 -- -- 13
2018-09-23 16:00:00 33.9 10 Sur 15 Sudeste 0 -- -- 14
2018-09-23 15:00:00 33.1 9 Sudeste 19 Este 0 -- -- 16
2018-09-23 14:00:00 32.8 5 Sudoeste 14 Sudeste 0 -- -- 19
2018-09-23 13:00:00 31.2 7 Sur 12 Sudeste 0 -- -- 22
2018-09-23 12:00:00 29.6 2 Este 6 Sur 0 -- -- 28
2018-09-23 11:00:00 26.2 0 Calma 4 Sudoeste 0 -- -- 36
2018-09-23 10:00:00 22.8 2 Nordeste 6 Nordeste 0 -- -- 47
2018-09-23 09:00:00 20.2 2 Sudeste 11 Nordeste 0 -- -- 54
2018-09-23 08:00:00 20.2 5 Este 10 Este 0 -- -- 45
2018-09-23 07:00:00 20.5 6 Sudeste 14 Sudeste 0 -- -- 41
2018-09-23 06:00:00 22.1 10 Sudeste 13 Sudeste 0 -- -- 43
2018-09-23 05:00:00 21.3 8 Este 12 Este 0 -- -- 51
2018-09-23 04:00:00 21.4 5 Sudeste 9 Nordeste 0 -- -- 50
2018-09-23 03:00:00 22.4 5 Nordeste 14 Sudeste 0 -- -- 44
2018-09-23 02:00:00 22.7 11 Sudeste 14 Sudeste 0 -- -- 44
2018-09-23 01:00:00 22.9 12 Sur 18 Sur 0 -- -- 42
2018-09-23 00:00:00 23 11 Sur 15 Sur 0 -- -- 41
2018-09-22 23:00:00 23.7 10 Sur 19 Sur 0 -- -- 38
2018-09-22 22:00:00 24.4 15 Sur 29 Sur 0 -- -- 35
2018-09-22 21:00:00 25.9 19 Sur 34 Sur 0 -- -- 33
2018-09-22 20:00:00 27.8 24 Sur 36 Sur 0 -- -- 29
2018-09-22 19:00:00 30.2 27 Sur 35 Sur 0 -- -- 26
2018-09-22 18:00:00 31.3 19 Sudoeste 35 Sur 0 -- -- 27
2018-09-22 17:00:00 32.6 18 Sudoeste 30 Sudoeste 0 -- -- 25
2018-09-22 16:00:00 33.2 20 Sur 27 Sudoeste 0 -- -- 21
2018-09-22 15:00:00 33.7 9 Sur 19 Sur 0 -- -- 18
2018-09-22 14:00:00 32.7 6 Norte 17 Sudeste 0 -- -- 19
2018-09-22 13:00:00 31.4 5 Nordeste 13 Nordeste 0 -- -- 23
2018-09-22 12:00:00 28.9 3 Nordeste 7 Nordeste 0 -- -- 28
2018-09-22 11:00:00 25.9 3 Nordeste 16 Nordeste 0 -- -- 36
2018-09-22 10:00:00 22.5 8 Este 15 Este 0 -- -- 45
2018-09-22 09:00:00 20.2 12 Este 18 Nordeste 0 -- -- 51
2018-09-22 08:00:00 19.9 13 Nordeste 15 Este 0 -- -- 50
2018-09-22 07:00:00 20.8 7 Este 14 Este 0 -- -- 46
2018-09-22 06:00:00 21 6 Nordeste 12 Este 0 -- -- 45
2018-09-22 05:00:00 21.8 5 Sudeste 8 Este 0 -- -- 37
2018-09-22 04:00:00 21.4 8 Sudeste 10 Sudeste 0 -- -- 37
2018-09-22 03:00:00 22.5 4 Sudeste 6 Este 0 -- -- 34
2018-09-22 02:00:00 22.5 6 Sur 11 Sur 0 -- -- 35
2018-09-22 01:00:00 23.1 9 Sur 13 Sudeste 0 -- -- 35
2018-09-22 00:00:00 23.8 4 Sudeste 15 Sur 0 -- -- 35
2018-09-21 23:00:00 24.2 13 Sur 19 Sur 0 -- -- 34
2018-09-21 22:00:00 24.5 16 Sur 19 Sur 0 -- -- 34
2018-09-21 21:00:00 26.4 16 Sur 27 Sur 0 -- -- 30
2018-09-21 20:00:00 29 18 Sudoeste 25 Sudoeste 0 -- -- 28
2018-09-21 19:00:00 31.1 15 Sudoeste 24 Sudoeste 0 -- -- 25
2018-09-21 18:00:00 32.7 12 Noroeste 17 Oeste 0 -- -- 20
2018-09-21 17:00:00 32.6 6 Oeste 18 Sudoeste 0 -- -- 20
2018-09-21 16:00:00 32.3 4 Nordeste 14 Sudeste 0 -- -- 23
2018-09-21 15:00:00 31.3 5 Nordeste 12 Sur 0 -- -- 24
2018-09-21 14:00:00 30.7 7 Sudeste 17 Sur 0 -- -- 26
2018-09-21 13:00:00 29.2 5 Este 10 Sudeste 0 -- -- 31
2018-09-21 12:00:00 27.2 5 Nordeste 10 Nordeste 0 -- -- 40
2018-09-21 11:00:00 24.1 3 Nordeste 11 Nordeste 0 -- -- 49
2018-09-21 10:00:00 20.8 8 Nordeste 11 Nordeste 0 -- -- 61
2018-09-21 09:00:00 18.7 8 Nordeste 10 Nordeste 0 -- -- 70
2018-09-21 08:00:00 18.4 4 Este 13 Este 0 -- -- 70
2018-09-21 07:00:00 18.6 7 Este 10 Este 0 -- -- 72
2018-09-21 06:00:00 19.3 0 Calma 8 Este 0 -- -- 69
2018-09-21 05:00:00 20 6 Este 8 Este 0 -- -- 67
2018-09-21 04:00:00 19.7 6 Este 13 Sur 0 -- -- 70
2018-09-21 03:00:00 20 9 Sur 13 Sur 0 -- -- 68
2018-09-21 02:00:00 20.6 8 Sur 15 Sur 0 -- -- 63
2018-09-21 01:00:00 21.4 5 Sudoeste 10 Sudoeste 0 -- -- 58
2018-09-21 00:00:00 21.5 3 Sudoeste 17 Sur 0 -- -- 57
2018-09-20 23:00:00 22.2 12 Sur 23 Sur 0 -- -- 54
2018-09-20 22:00:00 23.2 17 Sur 22 Sur 0 -- -- 50
2018-09-20 21:00:00 24.5 17 Sur 26 Sur 0 -- -- 49
2018-09-20 20:00:00 26.9 18 Sur 32 Sudoeste 0 -- -- 44
2018-09-20 19:00:00 28.9 22 Sudoeste 31 Sudoeste 0 -- -- 33
2018-09-20 18:00:00 30.1 21 Sudoeste 32 Sur 0 -- -- 31
2018-09-20 17:00:00 30.8 14 Sur 29 Sur 0 -- -- 31
2018-09-20 16:00:00 30.6 13 Sur 30 Sur 0 -- -- 30
2018-09-20 15:00:00 30.1 15 Sur 30 Sur 0 -- -- 33
2018-09-20 14:00:00 29.4 17 Sur 27 Sur 0 -- -- 38
2018-09-20 13:00:00 28.7 7 Sudeste 16 Sur 0 -- -- 39
2018-09-20 12:00:00 26.8 4 Sudoeste 12 Sudoeste 0 -- -- 44
2018-09-20 11:00:00 24.5 4 Nordeste 6 Nordeste 0 -- -- 53
2018-09-20 10:00:00 22.2 3 Sudeste 6 Sudeste 0 -- -- 65
2018-09-20 09:00:00 19.5 4 Sur 5 Sur 0 -- -- 74
2018-09-20 08:00:00 19.1 4 Nordeste 12 Este 0 -- -- 72
2018-09-20 07:00:00 19.8 11 Sudeste 18 Sudeste 0 -- -- 69
2018-09-20 06:00:00 19.4 4 Sur 6 Nordeste 0 -- -- 71
2018-09-20 05:00:00 20.4 0 Calma 5 Este 0 -- -- 65
2018-09-20 04:00:00 20.6 2 Este 12 Sudeste 0 -- -- 66
2018-09-20 03:00:00 21.2 11 Sudeste 14 Este 0 -- -- 63
2018-09-20 02:00:00 21.6 9 Sudeste 13 Este 0 -- -- 59
2018-09-20 01:00:00 21.7 9 Sur 15 Sur 0 -- -- 65
2018-09-20 00:00:00 22.3 9 Sur 12 Sur 0 -- -- 60